createdAt,value
2022-07-28T00:02:40.984Z,17.10
2022-07-28T00:06:45.893Z,15.33
2022-07-28T00:10:49.230Z,14.77
2022-07-28T00:14:52.554Z,14.77
2022-07-28T00:18:55.883Z,16.90
2022-07-28T00:23:00.725Z,15.53
2022-07-28T00:27:04.080Z,15.90
2022-07-28T00:31:08.564Z,13.27
2022-07-28T00:35:15.067Z,13.53
2022-07-28T00:39:20.433Z,14.40
2022-07-28T00:43:23.840Z,13.20
2022-07-28T00:47:27.180Z,12.83
2022-07-28T00:51:37.470Z,12.90
2022-07-28T00:56:03.426Z,16.30
2022-07-28T01:00:06.866Z,14.10
2022-07-28T01:04:10.663Z,13.77
2022-07-28T01:08:21.757Z,12.30
2022-07-28T01:12:35.982Z,13.87
2022-07-28T01:16:45.230Z,12.80
2022-07-28T01:20:51.594Z,13.13
2022-07-28T01:25:08.440Z,13.97
2022-07-28T01:29:47.736Z,13.33
2022-07-28T01:33:57.770Z,12.30
2022-07-28T01:38:04.947Z,14.13
2022-07-28T01:42:10.137Z,12.60
2022-07-28T01:46:15.832Z,14.23
2022-07-28T01:50:24.028Z,12.80
2022-07-28T01:54:28.971Z,13.93
2022-07-28T01:58:33.668Z,15.30
2022-07-28T02:02:40.832Z,14.50
2022-07-28T02:06:47.422Z,14.73
2022-07-28T02:11:05.509Z,14.37
2022-07-28T02:15:15.845Z,14.20
2022-07-28T02:19:21.120Z,15.20
2022-07-28T02:23:33.866Z,14.03
2022-07-28T02:27:40.575Z,15.27
2022-07-28T02:31:52.348Z,15.03
2022-07-28T02:36:00.592Z,14.50
2022-07-28T02:40:08.606Z,14.17
2022-07-28T02:44:16.740Z,14.33
2022-07-28T02:48:24.886Z,14.20
2022-07-28T02:52:30.984Z,14.07
2022-07-28T02:56:36.772Z,14.07
2022-07-28T03:00:41.965Z,15.17
2022-07-28T03:05:02.090Z,15.37
2022-07-28T03:09:05.810Z,14.67
2022-07-28T03:13:13.535Z,15.27
2022-07-28T03:17:17.333Z,14.73
2022-07-28T03:21:20.772Z,13.20
2022-07-28T03:25:29.823Z,13.07
2022-07-28T03:29:36.034Z,14.03
2022-07-28T03:33:40.197Z,14.80
2022-07-28T03:37:58.767Z,16.17
2022-07-28T03:42:04.452Z,14.93
2022-07-28T03:46:13.322Z,14.47
2022-07-28T03:50:17.087Z,14.13
2022-07-28T03:54:20.445Z,13.50
2022-07-28T03:58:28.729Z,15.40
2022-07-28T04:02:34.799Z,15.40
2022-07-28T04:06:38.174Z,14.83
2022-07-28T04:10:42.114Z,16.20
2022-07-28T04:14:45.444Z,15.50
2022-07-28T04:18:50.301Z,14.27
2022-07-28T04:22:54.342Z,16.20
2022-07-28T04:26:57.840Z,14.73
2022-07-28T04:31:01.276Z,14.43
2022-07-28T04:35:06.774Z,17.07
2022-07-28T04:39:11.240Z,13.87
2022-07-28T04:43:15.078Z,15.87
2022-07-28T04:47:18.783Z,15.63
2022-07-28T04:51:23.732Z,14.97
2022-07-28T04:55:27.548Z,15.73
2022-07-28T04:59:31.363Z,17.23
2022-07-28T05:03:36.662Z,16.80
2022-07-28T05:07:42.218Z,14.93
2022-07-28T05:11:45.983Z,15.27
2022-07-28T05:15:49.619Z,13.63
2022-07-28T05:19:53.048Z,15.20
2022-07-28T05:23:57.822Z,15.10
2022-07-28T05:28:01.160Z,12.30
2022-07-28T05:32:16.453Z,14.00
2022-07-28T05:36:21.130Z,13.00
2022-07-28T05:40:27.347Z,12.43
2022-07-28T05:44:35.782Z,14.43
2022-07-28T05:48:41.114Z,13.03
2022-07-28T05:52:46.078Z,11.43
2022-07-28T05:56:51.281Z,12.67
2022-07-28T06:00:55.186Z,11.50
2022-07-28T06:04:58.962Z,14.70
2022-07-28T06:09:02.282Z,11.77
2022-07-28T06:13:06.982Z,10.50
2022-07-28T06:17:10.285Z,10.53
2022-07-28T06:21:14.318Z,10.80
2022-07-28T06:25:19.854Z,10.70
2022-07-28T06:29:26.821Z,10.30
2022-07-28T06:33:30.138Z,9.93
2022-07-28T06:37:33.556Z,9.33
2022-07-28T06:41:41.563Z,8.50
2022-07-28T06:45:46.544Z,8.40
2022-07-28T06:49:49.932Z,8.63
2022-07-28T06:53:53.561Z,8.30
2022-07-28T06:57:59.203Z,6.97
2022-07-28T07:02:03.961Z,6.90
2022-07-28T07:06:07.525Z,7.23
2022-07-28T07:10:11.387Z,8.30
2022-07-28T07:14:15.044Z,7.80
2022-07-28T07:18:20.093Z,6.97
2022-07-28T07:22:23.523Z,9.07
2022-07-28T07:26:26.975Z,7.23
2022-07-28T07:30:30.423Z,6.93
2022-07-28T07:34:35.194Z,7.80
2022-07-28T07:38:38.806Z,7.27
2022-07-28T07:42:43.239Z,7.03
2022-07-28T07:46:46.774Z,6.80
2022-07-28T07:50:54.002Z,6.67
2022-07-28T07:54:57.769Z,7.50
2022-07-28T07:59:01.123Z,7.07
2022-07-28T08:03:04.531Z,6.93
2022-07-28T08:07:17.059Z,6.20
2022-07-28T08:11:20.416Z,7.90
2022-07-28T08:15:23.751Z,6.13
2022-07-28T08:19:27.200Z,7.63
2022-07-28T08:23:34.019Z,6.63
2022-07-28T08:27:37.361Z,6.60
2022-07-28T08:31:40.808Z,5.60
2022-07-28T08:35:45.032Z,5.07
2022-07-28T08:39:49.899Z,5.40
2022-07-28T08:43:57.308Z,5.00
2022-07-28T08:48:09.775Z,5.27
2022-07-28T08:52:14.702Z,3.70
2022-07-28T08:56:21.645Z,4.93
2022-07-28T09:00:25.528Z,4.47
2022-07-28T09:04:29.217Z,5.03
2022-07-28T09:08:32.649Z,4.23
2022-07-28T09:12:37.735Z,4.77
2022-07-28T09:16:41.112Z,4.40
2022-07-28T09:20:45.511Z,4.90
2022-07-28T09:24:49.075Z,4.27
2022-07-28T09:28:55.486Z,4.43
2022-07-28T09:33:41.932Z,4.47
2022-07-28T09:37:39.850Z,4.30
2022-07-28T09:41:50.768Z,4.17
2022-07-28T09:46:05.854Z,5.00
2022-07-28T09:50:09.992Z,4.10
2022-07-28T09:54:16.308Z,3.87
2022-07-28T09:58:20.179Z,4.40
2022-07-28T10:02:28.516Z,4.90
2022-07-28T10:06:37.988Z,3.77
2022-07-28T10:10:41.349Z,3.43
2022-07-28T10:14:46.439Z,4.23
2022-07-28T10:18:51.586Z,4.53
2022-07-28T10:23:00.070Z,3.90
2022-07-28T10:27:06.243Z,4.90
2022-07-28T10:31:12.460Z,4.50
2022-07-28T10:35:19.643Z,4.50
2022-07-28T10:39:29.446Z,5.03
2022-07-28T10:43:36.143Z,3.73
2022-07-28T10:47:48.069Z,4.97
2022-07-28T10:52:05.058Z,3.90
2022-07-28T10:56:22.829Z,4.57
2022-07-28T11:00:34.441Z,4.70
2022-07-28T11:04:55.977Z,4.30
2022-07-28T11:09:21.616Z,4.70
2022-07-28T11:13:33.219Z,4.40
2022-07-28T11:17:36.852Z,4.77
2022-07-28T11:22:22.366Z,4.70
2022-07-28T11:26:45.840Z,4.63
2022-07-28T11:30:55.989Z,4.63
2022-07-28T11:35:12.418Z,3.60
2022-07-28T11:39:25.665Z,4.90
2022-07-28T12:16:01.902Z,3.60
2022-07-28T12:20:13.772Z,4.53
2022-07-28T12:24:19.958Z,3.17
2022-07-28T12:28:25.634Z,4.17
2022-07-28T12:32:36.229Z,3.70
2022-07-28T12:36:40.181Z,3.80
2022-07-28T12:40:46.468Z,4.43
2022-07-28T12:44:51.527Z,4.70
2022-07-28T12:48:57.186Z,5.07
2022-07-28T12:53:05.263Z,4.60
2022-07-28T12:57:08.703Z,4.10
2022-07-28T15:22:01.966Z,3.87
2022-07-28T15:26:07.497Z,4.20
2022-07-28T15:30:12.668Z,4.60
2022-07-28T15:34:16.292Z,4.20
2022-07-28T15:38:19.746Z,4.67
2022-07-28T15:42:24.404Z,4.30
2022-07-28T17:02:43.004Z,5.33
2022-07-28T17:06:47.886Z,5.10
2022-07-28T17:10:51.923Z,6.23
2022-07-28T17:14:55.200Z,5.43
2022-07-28T17:18:59.993Z,5.80
